Terminal Aerodrome Forecast
Issued by NWS

Home | Current Version | Previous Version | Text Only | Print | Product List | Glossary Off
Versions: 1 2 3 4 5 6 7 8 9 10 11 12 13 14 15 16 17 18 19 20 21 22 23 24 25 26 27 28 29 30 31

197
FTUS43 KLOT 212331
TAFDPA
TAF
KDPA 212331Z 2200/2224 23005KT P6SM FEW250
     FM220500 00000KT 4SM BR OVC006
     FM220800 00000KT 1SM BR OVC004
     FM221700 03007KT 3SM BR OVC006
     FM221900 01010KT P6SM OVC015=

USA.gov is the U.S. government's official web portal to all federal, state and local government web resources and services.